createdAt,value
2018-09-27T00:00:17.724Z,8.42
2018-09-27T00:01:17.948Z,8.44
2018-09-27T00:02:18.174Z,8.42
2018-09-27T00:03:18.400Z,8.41
2018-09-27T00:04:18.625Z,8.36
2018-09-27T00:05:18.857Z,8.34
2018-09-27T00:06:19.076Z,8.20
2018-09-27T00:07:19.301Z,8.24
2018-09-27T00:08:19.528Z,8.31
2018-09-27T00:09:19.747Z,8.19
2018-09-27T00:10:19.972Z,8.08
2018-09-27T00:11:20.197Z,7.98
2018-09-27T00:12:20.419Z,8.06
2018-09-27T00:13:20.648Z,8.06
2018-09-27T00:14:20.872Z,8.13
2018-09-27T00:15:21.105Z,8.19
2018-09-27T00:16:21.327Z,8.10
2018-09-27T00:17:21.549Z,8.09
2018-09-27T00:18:21.777Z,8.03
2018-09-27T00:19:22.025Z,8.00
2018-09-27T00:20:22.227Z,8.01
2018-09-27T00:21:22.452Z,7.95
2018-09-27T00:22:22.680Z,8.09
2018-09-27T00:23:22.906Z,7.97
2018-09-27T00:24:23.132Z,7.98
2018-09-27T00:25:23.358Z,8.01
2018-09-27T00:26:23.581Z,8.06
2018-09-27T00:27:23.808Z,8.08
2018-09-27T00:28:24.033Z,8.12
2018-09-27T00:29:24.257Z,8.06
2018-09-27T00:30:24.488Z,8.18
2018-09-27T00:31:24.707Z,8.05
2018-09-27T00:32:24.934Z,8.01
2018-09-27T00:33:25.159Z,8.05
2018-09-27T00:34:25.386Z,8.05
2018-09-27T00:35:25.612Z,8.00
2018-09-27T00:36:25.839Z,8.01
2018-09-27T00:37:26.063Z,8.06
2018-09-27T00:38:26.289Z,8.05
2018-09-27T00:39:26.517Z,8.03
2018-09-27T00:40:26.742Z,8.03
2018-09-27T00:41:26.968Z,8.13
2018-09-27T00:42:27.192Z,8.01
2018-09-27T00:43:27.418Z,8.10
2018-09-27T00:44:27.649Z,8.10
2018-09-27T00:45:27.874Z,8.03
2018-09-27T00:46:28.092Z,7.88
2018-09-27T00:47:28.322Z,7.76
2018-09-27T00:48:28.545Z,7.82
2018-09-27T00:49:28.771Z,7.69
2018-09-27T00:50:28.993Z,7.72
2018-09-27T00:51:29.221Z,7.67
2018-09-27T00:52:29.445Z,7.75
2018-09-27T00:53:29.671Z,7.69
2018-09-27T00:54:29.920Z,7.70
2018-09-27T00:55:30.113Z,7.67
2018-09-27T00:56:30.337Z,7.66
2018-09-27T00:57:30.563Z,7.67
2018-09-27T00:58:30.792Z,7.88
2018-09-27T00:59:31.015Z,7.77
2018-09-27T01:00:31.238Z,7.88
2018-09-27T01:01:31.463Z,7.91
2018-09-27T01:02:31.689Z,7.87
2018-09-27T01:03:31.912Z,7.91
2018-09-27T01:04:32.142Z,7.97
2018-09-27T01:05:32.363Z,7.90
2018-09-27T01:06:32.590Z,7.88
2018-09-27T01:07:32.814Z,7.88
2018-09-27T01:08:33.038Z,7.82
2018-09-27T01:09:33.265Z,7.83
2018-09-27T01:10:33.489Z,7.80
2018-09-27T01:11:33.716Z,7.88
2018-09-27T01:12:33.942Z,7.85
2018-09-27T01:13:34.168Z,7.87
2018-09-27T01:14:34.392Z,7.87
2018-09-27T01:15:34.617Z,7.79
2018-09-27T01:16:34.841Z,7.79
2018-09-27T01:17:35.068Z,7.66
2018-09-27T01:18:35.294Z,7.76
2018-09-27T01:19:35.518Z,7.70
2018-09-27T01:20:35.748Z,7.63
2018-09-27T01:21:35.995Z,7.57
2018-09-27T01:22:36.220Z,7.70
2018-09-27T01:23:36.443Z,7.75
2018-09-27T01:24:36.669Z,7.76
2018-09-27T01:25:36.897Z,7.77
2018-09-27T01:26:37.122Z,7.67
2018-09-27T01:27:37.344Z,7.60
2018-09-27T01:28:37.569Z,7.61
2018-09-27T01:29:37.799Z,7.60
2018-09-27T01:30:38.021Z,7.70
2018-09-27T01:31:38.246Z,7.73
2018-09-27T01:32:38.470Z,7.85
2018-09-27T01:33:38.698Z,7.79
2018-09-27T01:34:38.923Z,7.80
2018-09-27T01:35:39.146Z,7.88
2018-09-27T01:36:39.372Z,7.79
2018-09-27T01:37:39.597Z,7.88
2018-09-27T01:38:39.821Z,7.82
2018-09-27T01:39:40.047Z,7.94
2018-09-27T01:40:40.269Z,7.94
2018-09-27T01:41:40.495Z,7.94
2018-09-27T01:42:40.721Z,7.93
2018-09-27T01:43:40.945Z,7.91
2018-09-27T01:44:41.170Z,7.88
2018-09-27T01:45:41.394Z,7.79
2018-09-27T01:46:41.619Z,7.88
2018-09-27T01:47:41.848Z,7.87
2018-09-27T01:48:42.071Z,7.70
2018-09-27T01:49:42.296Z,7.53
2018-09-27T01:50:42.522Z,7.54
2018-09-27T01:51:42.745Z,7.45
2018-09-27T01:52:42.971Z,7.50
2018-09-27T01:53:43.196Z,7.57
2018-09-27T01:54:43.423Z,7.58
2018-09-27T01:55:43.647Z,7.57
2018-09-27T01:56:43.874Z,7.58
2018-09-27T01:57:44.101Z,7.67
2018-09-27T01:58:44.326Z,7.72
2018-09-27T01:59:44.552Z,7.73
2018-09-27T02:00:44.777Z,7.69
2018-09-27T02:01:44.998Z,7.66
2018-09-27T02:02:45.223Z,7.57
2018-09-27T02:03:45.450Z,7.48
2018-09-27T02:04:45.680Z,7.50
2018-09-27T02:05:45.905Z,7.47
2018-09-27T02:06:46.132Z,7.38
2018-09-27T02:07:46.354Z,7.48
2018-09-27T02:08:46.578Z,7.43
2018-09-27T02:09:46.803Z,7.53
2018-09-27T02:10:47.032Z,7.45
2018-09-27T02:11:47.254Z,7.48
2018-09-27T02:12:47.481Z,7.43
2018-09-27T02:13:47.711Z,7.24
2018-09-27T02:14:47.930Z,7.31
2018-09-27T02:15:48.159Z,7.33
2018-09-27T02:16:48.377Z,7.43
2018-09-27T02:17:48.604Z,7.50
2018-09-27T02:18:48.830Z,7.43
2018-09-27T02:19:49.057Z,7.51
2018-09-27T02:20:49.279Z,7.57
2018-09-27T02:21:49.506Z,7.61
2018-09-27T02:22:49.728Z,7.66
2018-09-27T02:23:49.953Z,7.60
2018-09-27T02:24:50.178Z,7.50
2018-09-27T02:25:50.406Z,7.54
2018-09-27T02:26:50.629Z,7.42
2018-09-27T02:27:50.851Z,7.47
2018-09-27T02:28:51.080Z,7.45
2018-09-27T02:29:51.305Z,7.20
2018-09-27T02:30:51.527Z,7.20
2018-09-27T02:31:51.755Z,7.15
2018-09-27T02:32:51.980Z,7.10
2018-09-27T02:33:52.251Z,7.10
2018-09-27T02:34:52.430Z,7.17
2018-09-27T02:35:52.656Z,7.28
2018-09-27T02:36:52.885Z,7.20
2018-09-27T02:37:53.105Z,7.11
2018-09-27T02:38:53.334Z,7.18
2018-09-27T02:39:53.554Z,7.24
2018-09-27T02:40:53.781Z,7.35
2018-09-27T02:41:54.008Z,7.40
2018-09-27T02:42:54.227Z,7.38
2018-09-27T02:43:54.453Z,7.32
2018-09-27T02:44:54.677Z,7.35
2018-09-27T02:45:54.904Z,7.38
2018-09-27T02:46:55.127Z,7.40
2018-09-27T02:47:55.355Z,7.33
2018-09-27T02:48:55.579Z,7.17
2018-09-27T02:49:55.800Z,7.24
2018-09-27T02:50:56.026Z,7.32
2018-09-27T02:51:56.251Z,7.35
2018-09-27T02:52:56.477Z,7.32
2018-09-27T02:53:56.703Z,7.39
2018-09-27T02:54:56.930Z,7.32
2018-09-27T02:55:57.154Z,7.39
2018-09-27T02:56:57.379Z,7.28
2018-09-27T02:57:57.609Z,7.20
2018-09-27T02:58:57.833Z,7.21
2018-09-27T02:59:58.054Z,7.18
2018-09-27T03:00:58.279Z,7.28
2018-09-27T03:01:58.505Z,7.38
2018-09-27T03:02:58.731Z,7.32
2018-09-27T03:03:58.960Z,7.24
2018-09-27T03:04:59.182Z,7.31
2018-09-27T03:05:59.407Z,7.29
2018-09-27T03:06:59.631Z,7.28
2018-09-27T03:07:59.854Z,7.35
2018-09-27T03:09:00.080Z,7.35
2018-09-27T03:10:00.309Z,7.35
2018-09-27T03:11:00.528Z,7.29
2018-09-27T03:12:00.758Z,7.40
2018-09-27T03:13:00.980Z,7.36
2018-09-27T03:14:01.214Z,7.25
2018-09-27T03:15:01.428Z,7.21
2018-09-27T03:16:01.657Z,7.25
2018-09-27T03:17:01.878Z,7.18
2018-09-27T03:18:02.111Z,7.07
2018-09-27T03:19:02.338Z,7.03
2018-09-27T03:20:02.556Z,7.11
2018-09-27T03:21:02.937Z,7.23
2018-09-27T03:22:03.008Z,7.32
2018-09-27T03:23:03.236Z,7.39
2018-09-27T03:24:03.462Z,7.39
2018-09-27T03:25:03.688Z,7.40
2018-09-27T03:26:03.914Z,7.32
2018-09-27T03:27:04.136Z,7.35
2018-09-27T03:28:04.362Z,7.38
2018-09-27T03:29:04.581Z,7.23
2018-09-27T03:30:04.809Z,7.05
2018-09-27T03:31:05.071Z,6.95
2018-09-27T03:32:05.256Z,6.96
2018-09-27T03:33:05.488Z,6.99
2018-09-27T03:34:05.703Z,6.93
2018-09-27T03:35:05.911Z,6.89
2018-09-27T03:36:06.137Z,6.97
2018-09-27T03:37:06.362Z,7.14
2018-09-27T03:38:06.590Z,7.10
2018-09-27T03:39:06.813Z,7.18
2018-09-27T03:40:07.077Z,7.28
2018-09-27T03:41:07.263Z,7.25
2018-09-27T03:42:07.488Z,7.25
2018-09-27T03:43:07.714Z,7.29
2018-09-27T03:44:07.934Z,7.21
2018-09-27T03:45:08.164Z,7.15
2018-09-27T03:46:08.389Z,7.23
2018-09-27T03:47:08.615Z,7.24
2018-09-27T03:48:08.839Z,7.29
2018-09-27T03:49:09.063Z,7.21
2018-09-27T03:50:09.288Z,7.15
2018-09-27T03:51:09.513Z,7.07
2018-09-27T03:52:09.739Z,7.13
2018-09-27T03:53:09.965Z,6.99
2018-09-27T03:54:10.189Z,7.05
2018-09-27T03:55:10.423Z,7.15
2018-09-27T03:56:10.640Z,7.18
2018-09-27T03:57:10.865Z,7.24
2018-09-27T03:58:11.092Z,7.20
2018-09-27T03:59:11.314Z,7.31
2018-09-27T04:00:11.540Z,7.29
2018-09-27T04:01:11.768Z,7.31
2018-09-27T04:02:11.991Z,7.29
2018-09-27T04:03:12.222Z,7.32
2018-09-27T04:04:12.441Z,7.29
2018-09-27T04:05:12.667Z,7.32
2018-09-27T04:06:12.893Z,7.24
2018-09-27T04:07:13.116Z,7.18
2018-09-27T04:08:13.344Z,7.15
2018-09-27T04:09:13.569Z,7.14
2018-09-27T04:10:13.793Z,7.21
2018-09-27T04:11:14.017Z,7.18
2018-09-27T04:12:14.243Z,7.11
2018-09-27T04:13:14.469Z,6.88
2018-09-27T04:14:14.696Z,6.85
2018-09-27T04:15:14.920Z,6.95
2018-09-27T04:16:15.148Z,6.84
2018-09-27T04:17:15.373Z,6.85
2018-09-27T04:18:15.600Z,6.84
2018-09-27T04:19:15.827Z,6.95
2018-09-27T04:20:16.051Z,6.82
2018-09-27T04:21:16.273Z,6.79
2018-09-27T04:22:16.504Z,6.70
2018-09-27T04:23:16.729Z,6.72
2018-09-27T04:24:16.954Z,6.74
2018-09-27T04:25:17.178Z,6.69
2018-09-27T04:26:17.404Z,6.79
2018-09-27T04:27:17.631Z,6.81
2018-09-27T04:28:17.857Z,6.87
2018-09-27T04:29:18.082Z,6.87
2018-09-27T04:30:18.308Z,6.95
2018-09-27T04:31:18.535Z,6.97
2018-09-27T04:32:18.764Z,6.93
2018-09-27T04:33:18.984Z,6.92
2018-09-27T04:34:19.212Z,6.92
2018-09-27T04:35:19.435Z,6.97
2018-09-27T04:36:19.660Z,6.92
2018-09-27T04:37:19.885Z,6.96
2018-09-27T04:38:20.112Z,6.82
2018-09-27T04:39:20.336Z,6.79
2018-09-27T04:40:20.562Z,6.78
2018-09-27T04:41:20.787Z,6.84
2018-09-27T04:42:21.014Z,6.93
2018-09-27T04:43:21.238Z,6.96
2018-09-27T04:44:21.463Z,6.78
2018-09-27T04:45:21.691Z,6.78
2018-09-27T04:46:21.919Z,6.74
2018-09-27T04:47:22.140Z,6.72
2018-09-27T04:48:22.366Z,6.74
2018-09-27T04:49:22.591Z,6.59
2018-09-27T04:50:22.819Z,6.66
2018-09-27T04:51:23.041Z,6.70
2018-09-27T04:52:23.266Z,6.75
2018-09-27T04:53:23.487Z,6.82
2018-09-27T04:54:23.715Z,6.77
2018-09-27T04:55:23.935Z,6.74
2018-09-27T04:56:24.161Z,6.84
2018-09-27T04:57:24.387Z,6.82
2018-09-27T04:58:24.611Z,6.85
2018-09-27T04:59:24.833Z,7.00
2018-09-27T05:00:25.062Z,7.02
2018-09-27T05:01:25.288Z,7.00
2018-09-27T05:02:25.515Z,6.97
2018-09-27T05:03:25.738Z,6.95
2018-09-27T05:04:25.966Z,7.10
2018-09-27T05:05:26.192Z,6.93
2018-09-27T05:06:26.494Z,7.03
2018-09-27T05:07:26.642Z,7.11
2018-09-27T05:08:26.867Z,7.03
2018-09-27T05:09:27.103Z,6.99
2018-09-27T05:10:27.319Z,6.96
2018-09-27T05:11:27.548Z,6.95
2018-09-27T05:12:27.773Z,6.84
2018-09-27T05:13:27.999Z,6.85
2018-09-27T05:14:28.223Z,6.81
2018-09-27T05:15:28.462Z,6.78
2018-09-27T05:16:28.673Z,6.88
2018-09-27T05:17:28.898Z,6.96
2018-09-27T05:18:29.122Z,6.95
2018-09-27T05:19:29.347Z,6.77
2018-09-27T05:20:29.634Z,6.85
2018-09-27T05:21:29.838Z,6.74
2018-09-27T05:22:30.026Z,6.85
2018-09-27T05:23:30.249Z,6.93
2018-09-27T05:24:30.478Z,6.92
2018-09-27T05:25:30.699Z,6.96
2018-09-27T05:26:30.923Z,6.95
2018-09-27T05:27:31.152Z,6.97
2018-09-27T05:28:31.372Z,7.02
2018-09-27T05:29:31.602Z,7.13
2018-09-27T05:30:31.827Z,7.13
2018-09-27T05:31:32.050Z,7.10
2018-09-27T05:32:32.276Z,7.07
2018-09-27T05:33:32.565Z,7.06
2018-09-27T05:34:32.727Z,7.05
2018-09-27T05:35:32.953Z,7.13
2018-09-27T05:36:33.178Z,7.03
2018-09-27T05:37:33.404Z,6.99
2018-09-27T05:38:33.628Z,6.99
2018-09-27T05:39:33.872Z,6.92
2018-09-27T05:40:34.075Z,7.02
2018-09-27T05:41:34.304Z,7.00
2018-09-27T05:42:34.530Z,6.82
2018-09-27T05:43:34.758Z,6.81
2018-09-27T05:44:34.977Z,6.84
2018-09-27T05:45:35.242Z,6.82
2018-09-27T05:46:35.436Z,6.99
2018-09-27T05:47:35.661Z,7.35
2018-09-27T05:48:35.885Z,7.48
2018-09-27T05:49:36.112Z,7.82
2018-09-27T05:50:36.334Z,7.94
2018-09-27T05:51:36.585Z,8.15
2018-09-27T05:52:36.788Z,8.38
2018-09-27T05:53:37.012Z,8.63
2018-09-27T05:54:37.238Z,8.74
2018-09-27T05:55:37.471Z,8.97
2018-09-27T05:56:37.688Z,9.08
2018-09-27T05:57:37.940Z,9.37
2018-09-27T05:58:38.139Z,9.59
2018-09-27T05:59:38.366Z,9.51
2018-09-27T06:00:38.591Z,9.61
2018-09-27T06:01:38.816Z,9.62
2018-09-27T06:02:39.043Z,9.68
2018-09-27T06:03:39.316Z,9.95
2018-09-27T06:04:39.496Z,10.02
2018-09-27T06:05:39.719Z,10.31
2018-09-27T06:06:39.942Z,10.34
2018-09-27T06:07:40.168Z,10.34
2018-09-27T06:08:40.396Z,10.60
2018-09-27T06:09:40.697Z,10.48
2018-09-27T06:10:40.848Z,10.48
2018-09-27T06:11:41.075Z,10.49
2018-09-27T06:12:41.303Z,10.48
2018-09-27T06:13:41.530Z,10.64
2018-09-27T06:14:41.759Z,10.99
2018-09-27T06:15:42.046Z,11.15
2018-09-27T06:16:42.212Z,11.15
2018-09-27T06:17:42.437Z,11.33
2018-09-27T06:18:42.664Z,11.54
2018-09-27T06:19:42.896Z,11.57
2018-09-27T06:20:43.120Z,11.43
2018-09-27T06:21:43.407Z,11.52
2018-09-27T06:22:43.579Z,11.83
2018-09-27T06:23:43.802Z,12.07
2018-09-27T06:24:44.030Z,12.07
2018-09-27T06:25:44.254Z,12.22
2018-09-27T06:26:44.478Z,12.25
2018-09-27T06:27:44.708Z,12.31
2018-09-27T06:28:44.934Z,12.39
2018-09-27T06:29:45.162Z,12.22
2018-09-27T06:30:45.390Z,12.40
2018-09-27T06:31:45.618Z,12.27
2018-09-27T06:32:45.845Z,12.32
2018-09-27T06:33:46.073Z,12.24
2018-09-27T06:34:46.302Z,12.15
2018-09-27T06:35:46.527Z,12.17
2018-09-27T06:36:46.755Z,12.20
2018-09-27T06:37:46.984Z,12.03
2018-09-27T06:38:47.210Z,11.88
2018-09-27T06:39:47.441Z,11.62
2018-09-27T06:40:47.671Z,11.60
2018-09-27T06:41:47.897Z,11.47
2018-09-27T06:42:48.153Z,11.57
2018-09-27T06:43:48.351Z,11.37
2018-09-27T06:44:48.581Z,11.54
2018-09-27T06:45:48.813Z,11.44
2018-09-27T06:46:49.026Z,11.47
2018-09-27T06:47:49.256Z,11.54
2018-09-27T06:48:49.548Z,11.36
2018-09-27T06:49:49.709Z,11.30
2018-09-27T06:50:49.940Z,11.32
2018-09-27T06:51:50.169Z,11.44
2018-09-27T06:52:50.433Z,11.44
2018-09-27T06:53:50.656Z,11.33
2018-09-27T06:54:50.949Z,11.33
2018-09-27T06:55:51.155Z,11.32
2018-09-27T06:56:51.346Z,11.37
2018-09-27T06:57:51.564Z,11.14
2018-09-27T06:58:51.791Z,11.14
2018-09-27T06:59:52.019Z,11.14
2018-09-27T07:00:52.316Z,10.90
2018-09-27T07:01:52.473Z,10.87
2018-09-27T07:02:52.701Z,11.15
2018-09-27T07:03:52.932Z,11.19
2018-09-27T07:04:53.192Z,11.27
2018-09-27T07:05:53.385Z,11.37
2018-09-27T07:06:53.611Z,11.37
2018-09-27T07:07:53.841Z,11.30
2018-09-27T07:08:54.069Z,11.25
2018-09-27T07:09:54.298Z,11.35
2018-09-27T07:10:54.527Z,11.41
2018-09-27T07:11:54.824Z,11.47
2018-09-27T07:12:55.064Z,11.35
2018-09-27T07:13:55.207Z,11.41
2018-09-27T07:14:55.437Z,11.35
2018-09-27T07:15:55.671Z,11.60
2018-09-27T07:16:55.892Z,11.62
2018-09-27T07:17:56.120Z,11.55
2018-09-27T07:18:56.347Z,11.36
2018-09-27T07:19:56.578Z,11.43
2018-09-27T07:20:56.811Z,11.55
2018-09-27T07:21:57.034Z,11.62
2018-09-27T07:22:57.262Z,11.52
2018-09-27T07:23:57.491Z,11.54
2018-09-27T07:24:57.770Z,11.47
2018-09-27T07:25:57.948Z,11.47
2018-09-27T07:26:58.194Z,11.57
2018-09-27T07:27:58.399Z,11.80
2018-09-27T07:28:58.627Z,11.97
2018-09-27T07:29:58.854Z,11.97
2018-09-27T07:30:59.121Z,11.75
2018-09-27T07:31:59.309Z,12.00
2018-09-27T07:32:59.538Z,11.94
2018-09-27T07:33:59.766Z,11.99
2018-09-27T07:34:59.991Z,11.97
2018-09-27T07:36:00.219Z,12.06
2018-09-27T07:37:00.448Z,12.22
2018-09-27T07:38:00.673Z,12.31
2018-09-27T07:39:00.902Z,12.46
2018-09-27T07:40:01.129Z,12.47
2018-09-27T07:41:01.357Z,12.62
2018-09-27T07:42:01.590Z,12.50
2018-09-27T07:43:01.818Z,12.60
2018-09-27T07:44:02.044Z,12.55
2018-09-27T07:45:02.270Z,12.58
2018-09-27T07:46:02.502Z,12.54
2018-09-27T07:47:02.729Z,12.67
2018-09-27T07:48:02.958Z,12.73
2018-09-27T07:49:03.184Z,12.76
2018-09-27T07:50:03.413Z,12.87
2018-09-27T07:51:03.638Z,12.93
2018-09-27T07:52:03.868Z,12.93
2018-09-27T07:53:04.096Z,13.03
2018-09-27T07:54:04.324Z,13.19
2018-09-27T07:55:04.554Z,13.25
2018-09-27T07:56:04.783Z,13.31
2018-09-27T07:57:05.010Z,13.41
2018-09-27T07:58:05.238Z,13.46
2018-09-27T07:59:05.466Z,13.50
2018-09-27T08:00:05.731Z,13.46
2018-09-27T08:01:05.920Z,13.53
2018-09-27T08:02:06.149Z,13.53
2018-09-27T08:03:06.388Z,13.60
2018-09-27T08:04:06.624Z,13.65
2018-09-27T08:05:06.834Z,13.74
2018-09-27T08:06:07.065Z,13.63
2018-09-27T08:07:07.290Z,13.75
2018-09-27T08:08:07.517Z,13.78
2018-09-27T08:09:07.746Z,13.67
2018-09-27T08:10:07.975Z,13.74
2018-09-27T08:11:08.219Z,13.79
2018-09-27T08:12:08.435Z,13.86
2018-09-27T08:13:08.666Z,13.79
2018-09-27T08:14:08.893Z,13.87
2018-09-27T08:15:09.122Z,13.93
2018-09-27T08:16:09.346Z,13.93
2018-09-27T08:17:09.628Z,14.07
2018-09-27T08:18:09.802Z,14.03
2018-09-27T08:19:10.034Z,14.10
2018-09-27T08:20:10.264Z,14.12
2018-09-27T08:21:10.654Z,14.11
2018-09-27T08:22:10.721Z,14.15
2018-09-27T08:23:10.946Z,14.20
2018-09-27T08:24:11.235Z,14.23
2018-09-27T08:25:11.405Z,14.26
2018-09-27T08:26:11.634Z,14.44
2018-09-27T08:27:11.866Z,14.41
2018-09-27T08:28:12.091Z,14.41
2018-09-27T08:29:12.320Z,14.44
2018-09-27T08:30:12.548Z,14.60
2018-09-27T08:31:12.822Z,14.59
2018-09-27T08:32:13.006Z,14.65
2018-09-27T08:33:13.236Z,14.77
2018-09-27T08:34:13.465Z,14.79
2018-09-27T08:35:13.692Z,14.79
2018-09-27T08:36:13.926Z,14.92
2018-09-27T08:37:14.151Z,14.84
2018-09-27T08:38:14.419Z,14.89
2018-09-27T08:39:14.642Z,14.96
2018-09-27T08:40:14.837Z,14.89
2018-09-27T08:41:15.066Z,14.97
2018-09-27T08:42:15.293Z,15.03
2018-09-27T08:43:15.523Z,15.11
2018-09-27T08:44:15.751Z,15.22
2018-09-27T08:45:16.331Z,15.21
2018-09-27T08:46:16.210Z,15.11
2018-09-27T08:47:16.442Z,15.27
2018-09-27T08:48:16.668Z,15.33
2018-09-27T08:49:16.900Z,15.31
2018-09-27T08:50:17.124Z,15.36
2018-09-27T08:51:17.361Z,15.46
2018-09-27T08:52:17.589Z,15.59
2018-09-27T08:53:17.816Z,15.44
2018-09-27T08:54:18.046Z,15.57
2018-09-27T08:55:18.333Z,15.59
2018-09-27T08:56:18.566Z,15.64
2018-09-27T08:57:18.735Z,15.62
2018-09-27T08:58:18.961Z,15.61
2018-09-27T08:59:19.191Z,15.70
2018-09-27T09:00:19.420Z,15.65
2018-09-27T09:01:19.650Z,15.83
2018-09-27T09:02:19.880Z,15.88
2018-09-27T09:03:20.130Z,15.92
2018-09-27T09:04:20.339Z,15.95
2018-09-27T09:05:20.571Z,16.05
2018-09-27T09:06:20.799Z,16.12
2018-09-27T09:07:21.027Z,16.16
2018-09-27T09:08:21.261Z,16.12
2018-09-27T09:09:21.491Z,16.23
2018-09-27T09:10:21.720Z,16.26
2018-09-27T09:11:21.951Z,16.36
2018-09-27T09:12:22.181Z,16.35
2018-09-27T09:13:22.456Z,16.41
2018-09-27T09:14:22.638Z,16.36
2018-09-27T09:15:22.904Z,16.43
2018-09-27T09:16:23.097Z,16.46
2018-09-27T09:17:23.329Z,16.49
2018-09-27T09:18:23.563Z,16.58
2018-09-27T09:19:23.791Z,16.60
2018-09-27T09:20:24.017Z,16.60
2018-09-27T09:21:24.247Z,16.53
2018-09-27T09:22:24.472Z,16.49
2018-09-27T09:23:24.704Z,16.66
2018-09-27T09:24:24.985Z,16.71
2018-09-27T09:25:25.164Z,16.69
2018-09-27T09:26:25.392Z,16.64
2018-09-27T09:27:25.646Z,16.71
2018-09-27T09:28:25.857Z,16.75
2018-09-27T09:29:26.154Z,16.83
2018-09-27T09:30:26.312Z,16.76
2018-09-27T09:31:26.537Z,16.87
2018-09-27T09:32:26.769Z,16.90
2018-09-27T09:33:27.050Z,16.99
2018-09-27T09:34:27.226Z,16.93
2018-09-27T09:35:27.520Z,17.04
2018-09-27T09:36:27.692Z,17.09
2018-09-27T09:37:27.914Z,17.06
2018-09-27T09:38:28.146Z,17.15
2018-09-27T09:39:28.377Z,17.23
2018-09-27T09:40:28.609Z,17.26
2018-09-27T09:41:28.838Z,17.36
2018-09-27T09:42:29.063Z,17.33
2018-09-27T09:43:29.297Z,17.44
2018-09-27T09:44:29.523Z,17.45
2018-09-27T09:45:29.760Z,17.42
2018-09-27T09:46:29.982Z,17.56
2018-09-27T09:47:30.216Z,17.60
2018-09-27T09:48:30.440Z,17.59
2018-09-27T09:49:30.671Z,17.63
2018-09-27T09:50:30.900Z,17.70
2018-09-27T09:51:31.132Z,17.76
2018-09-27T09:52:31.361Z,17.78
2018-09-27T09:53:31.590Z,17.71
2018-09-27T09:54:31.822Z,17.79
2018-09-27T09:55:32.050Z,17.85
2018-09-27T09:56:32.281Z,18.00
2018-09-27T09:57:32.511Z,17.98
2018-09-27T09:58:32.740Z,17.98
2018-09-27T09:59:32.967Z,17.92
2018-09-27T10:00:33.196Z,18.05
2018-09-27T10:01:33.425Z,17.98
2018-09-27T10:02:33.733Z,18.18
2018-09-27T10:03:33.886Z,18.11
2018-09-27T10:04:34.117Z,18.15
2018-09-27T10:05:34.347Z,18.26
2018-09-27T10:06:34.575Z,18.43
2018-09-27T10:07:34.814Z,18.43
2018-09-27T10:08:35.045Z,18.41
2018-09-27T10:09:35.278Z,18.58
2018-09-27T10:10:35.505Z,18.56
2018-09-27T10:11:35.735Z,18.65
2018-09-27T10:12:35.964Z,18.70
2018-09-27T10:13:36.194Z,18.73
2018-09-27T10:14:36.426Z,18.83
2018-09-27T10:15:36.659Z,18.88
2018-09-27T10:16:36.886Z,18.98
2018-09-27T10:17:37.116Z,18.89
2018-09-27T10:18:37.349Z,18.98
2018-09-27T10:19:37.578Z,19.04
2018-09-27T10:20:37.809Z,19.02
2018-09-27T10:21:38.100Z,19.04
2018-09-27T10:22:38.272Z,19.08
2018-09-27T10:23:38.500Z,19.11
2018-09-27T10:24:38.732Z,19.15
2018-09-27T10:25:38.965Z,19.14
2018-09-27T10:26:39.193Z,19.26
2018-09-27T10:27:39.421Z,19.18
2018-09-27T10:28:39.650Z,19.29
2018-09-27T10:29:39.881Z,19.33
2018-09-27T10:30:40.110Z,19.40
2018-09-27T10:31:40.348Z,19.39
2018-09-27T10:32:40.566Z,19.47
2018-09-27T10:33:40.796Z,19.52
2018-09-27T10:34:41.090Z,19.56
2018-09-27T10:35:41.262Z,19.71
2018-09-27T10:36:41.492Z,19.71
2018-09-27T10:37:41.722Z,19.74
2018-09-27T10:38:41.952Z,19.85
2018-09-27T10:39:42.190Z,19.79
2018-09-27T10:40:42.420Z,19.88
2018-09-27T10:41:42.651Z,19.77
2018-09-27T10:42:42.880Z,19.85
2018-09-27T10:43:43.114Z,19.84
2018-09-27T10:44:43.342Z,19.84
2018-09-27T10:45:43.576Z,19.88
2018-09-27T10:46:43.805Z,19.79
2018-09-27T10:47:44.035Z,19.94
2018-09-27T10:48:44.266Z,20.07
2018-09-27T10:49:44.501Z,20.04
2018-09-27T10:50:44.730Z,20.00
2018-09-27T10:51:44.961Z,19.95
2018-09-27T10:52:45.189Z,20.11
2018-09-27T10:53:45.419Z,20.10
2018-09-27T10:54:45.645Z,20.04
2018-09-27T10:55:45.872Z,20.04
2018-09-27T10:56:46.102Z,20.10
2018-09-27T10:57:46.331Z,20.13
2018-09-27T10:58:46.569Z,20.19
2018-09-27T10:59:46.824Z,20.24
2018-09-27T11:00:47.025Z,20.13
2018-09-27T11:01:47.256Z,20.32
2018-09-27T11:02:47.489Z,20.26
2018-09-27T11:03:47.768Z,20.37
2018-09-27T11:04:47.952Z,20.36
2018-09-27T11:05:48.179Z,20.39
2018-09-27T11:06:48.410Z,20.50
2018-09-27T11:07:48.640Z,20.50
2018-09-27T11:08:48.872Z,20.59
2018-09-27T11:09:49.099Z,20.59
2018-09-27T11:10:49.336Z,20.66
2018-09-27T11:11:49.566Z,20.62
2018-09-27T11:12:49.797Z,20.62
2018-09-27T11:13:50.029Z,20.78
2018-09-27T11:14:50.263Z,20.80
2018-09-27T11:15:50.489Z,20.80
2018-09-27T11:16:50.719Z,20.93
2018-09-27T11:17:50.950Z,20.96
2018-09-27T11:18:51.181Z,20.95
2018-09-27T11:19:51.410Z,21.03
2018-09-27T11:20:51.643Z,21.15
2018-09-27T11:21:51.880Z,21.17
2018-09-27T11:22:52.146Z,21.22
2018-09-27T11:23:52.333Z,21.14
2018-09-27T11:24:52.565Z,21.22
2018-09-27T11:25:52.797Z,21.22
2018-09-27T11:26:53.029Z,21.21
2018-09-27T11:27:53.260Z,21.24
2018-09-27T11:28:53.542Z,21.30
2018-09-27T11:29:53.722Z,21.40
2018-09-27T11:30:53.951Z,21.35
2018-09-27T11:31:54.185Z,21.30
2018-09-27T11:32:54.455Z,21.36
2018-09-27T11:33:54.646Z,21.36
2018-09-27T11:34:54.877Z,21.45
2018-09-27T11:35:55.111Z,21.46
2018-09-27T11:36:55.341Z,21.51
2018-09-27T11:37:55.570Z,21.54
2018-09-27T11:38:55.842Z,21.60
2018-09-27T11:39:56.034Z,21.58
2018-09-27T11:40:56.265Z,21.61
2018-09-27T11:41:56.501Z,21.70
2018-09-27T11:42:56.786Z,21.79
2018-09-27T11:43:57.016Z,21.93
2018-09-27T11:44:57.190Z,21.95
2018-09-27T11:45:57.422Z,21.93
2018-09-27T11:46:57.673Z,22.02
2018-09-27T11:47:57.902Z,22.08
2018-09-27T11:48:58.148Z,22.06
2018-09-27T11:49:58.386Z,22.04
2018-09-27T11:50:58.608Z,22.06
2018-09-27T11:51:58.828Z,22.07
2018-09-27T11:52:59.058Z,22.06
2018-09-27T11:53:59.289Z,22.10
2018-09-27T11:54:59.539Z,22.00
2018-09-27T11:55:59.806Z,22.15
2018-09-27T11:56:59.982Z,22.15
2018-09-27T11:58:00.209Z,22.20
2018-09-27T11:59:00.464Z,22.23
2018-09-27T12:00:00.671Z,22.25
2018-09-27T12:01:00.902Z,22.23
2018-09-27T12:02:01.143Z,22.23
2018-09-27T12:03:01.367Z,22.23
2018-09-27T12:04:01.598Z,22.36
2018-09-27T12:05:01.833Z,22.39
2018-09-27T12:06:02.062Z,22.35
2018-09-27T12:07:02.295Z,22.38
2018-09-27T12:08:02.525Z,22.29
2018-09-27T12:09:02.757Z,22.23
2018-09-27T12:10:02.987Z,22.38
2018-09-27T12:11:03.219Z,22.25
2018-09-27T12:12:03.514Z,22.20
2018-09-27T12:13:03.680Z,22.38
2018-09-27T12:14:03.910Z,22.28
2018-09-27T12:15:04.145Z,22.33
2018-09-27T12:16:04.381Z,22.29
2018-09-27T12:17:04.611Z,22.23
2018-09-27T12:18:04.846Z,22.33
2018-09-27T12:19:05.073Z,22.41
2018-09-27T12:20:05.330Z,22.45
2018-09-27T12:21:05.537Z,22.54
2018-09-27T12:22:05.773Z,22.48
2018-09-27T12:23:06.044Z,22.50
2018-09-27T12:24:06.233Z,22.53
2018-09-27T12:25:06.471Z,22.55
2018-09-27T12:26:06.696Z,22.57
2018-09-27T12:27:06.925Z,22.63
2018-09-27T12:28:07.160Z,22.63
2018-09-27T12:29:07.389Z,22.72
2018-09-27T12:30:07.622Z,22.62
2018-09-27T12:31:07.991Z,22.75
2018-09-27T12:32:08.085Z,22.73
2018-09-27T12:33:08.315Z,22.65
2018-09-27T12:34:08.595Z,22.72
2018-09-27T12:35:08.781Z,22.76
2018-09-27T12:36:09.013Z,22.73
2018-09-27T12:37:09.248Z,22.75
2018-09-27T12:38:09.478Z,22.81
2018-09-27T12:39:09.708Z,22.80
2018-09-27T12:40:09.944Z,22.84
2018-09-27T12:41:10.173Z,22.94
2018-09-27T12:42:10.596Z,22.91
2018-09-27T12:43:10.640Z,22.84
2018-09-27T12:44:10.871Z,22.75
2018-09-27T12:45:11.174Z,22.83
2018-09-27T12:46:11.417Z,22.93
2018-09-27T12:47:11.571Z,22.90
2018-09-27T12:48:11.866Z,22.90
2018-09-27T12:49:12.032Z,22.94
2018-09-27T12:50:12.265Z,22.93
2018-09-27T12:51:12.532Z,22.96
2018-09-27T12:52:12.994Z,23.00
2018-09-27T12:53:13.033Z,22.96
2018-09-27T12:54:13.201Z,23.09
2018-09-27T12:55:13.421Z,23.10
2018-09-27T12:56:13.655Z,23.06
2018-09-27T12:57:13.939Z,23.06
2018-09-27T12:58:14.119Z,23.12
2018-09-27T12:59:14.352Z,23.10
2018-09-27T13:00:14.583Z,23.09
2018-09-27T13:01:14.817Z,23.02
2018-09-27T13:02:15.154Z,23.06
2018-09-27T13:03:15.278Z,23.09
2018-09-27T13:04:15.510Z,23.13
2018-09-27T13:05:15.741Z,23.12
2018-09-27T13:06:15.971Z,23.10
2018-09-27T13:07:16.206Z,23.10